sensor_id;sensor_type;location;lat;lon;timestamp;pressure;altitude;pressure_sealevel;temperature;humidity
44988;BME280;35735;52.226;21.254;2023-05-23T00:02:01;100308.13;;;10.90;100.00
44988;BME280;35735;52.226;21.254;2023-05-23T00:07:02;100308.19;;;10.84;100.00
44988;BME280;35735;52.226;21.254;2023-05-23T00:12:03;100306.41;;;10.69;100.00
44988;BME280;35735;52.226;21.254;2023-05-23T00:17:04;100308.25;;;10.53;100.00
44988;BME280;35735;52.226;21.254;2023-05-23T00:22:05;100300.12;;;10.58;100.00
44988;BME280;35735;52.226;21.254;2023-05-23T00:27:05;100298.31;;;10.54;100.00
44988;BME280;35735;52.226;21.254;2023-05-23T00:32:06;100293.84;;;10.42;100.00
44988;BME280;35735;52.226;21.254;2023-05-23T00:37:06;100292.06;;;10.38;100.00
44988;BME280;35735;52.226;21.254;2023-05-23T00:42:07;100285.78;;;10.36;100.00
44988;BME280;35735;52.226;21.254;2023-05-23T00:47:07;100284.87;;;10.37;100.00
44988;BME280;35735;52.226;21.254;2023-05-23T00:52:09;100286.69;;;10.35;100.00
44988;BME280;35735;52.226;21.254;2023-05-23T00:57:10;100293.88;;;10.17;100.00
44988;BME280;35735;52.226;21.254;2023-05-23T01:02:10;100281.25;;;10.10;100.00
44988;BME280;35735;52.226;21.254;2023-05-23T01:07:11;100283.06;;;10.02;100.00
44988;BME280;35735;52.226;21.254;2023-05-23T01:28:05;100284.84;;;9.75;100.00
44988;BME280;35735;52.226;21.254;2023-05-23T01:33:07;100281.22;;;9.67;100.00
44988;BME280;35735;52.226;21.254;2023-05-23T01:38:08;100282.16;;;9.68;100.00
44988;BME280;35735;52.226;21.254;2023-05-23T01:43:09;100277.66;;;9.59;100.00
44988;BME280;35735;52.226;21.254;2023-05-23T01:48:10;100280.34;;;9.53;100.00
44988;BME280;35735;52.226;21.254;2023-05-23T01:53:21;100275.84;;;9.45;100.00
44988;BME280;35735;52.226;21.254;2023-05-23T01:58:22;100272.22;;;9.46;100.00
44988;BME280;35735;52.226;21.254;2023-05-23T02:03:23;100263.25;;;9.44;100.00
44988;BME280;35735;52.226;21.254;2023-05-23T02:08:23;100268.59;;;9.35;100.00
44988;BME280;35735;52.226;21.254;2023-05-23T02:13:24;100272.16;;;9.23;100.00
44988;BME280;35735;52.226;21.254;2023-05-23T02:18:24;100265.91;;;9.26;100.00
44988;BME280;35735;52.226;21.254;2023-05-23T02:23:25;100255.13;;;9.26;100.00
44988;BME280;35735;52.226;21.254;2023-05-23T02:28:26;100248.84;;;9.25;100.00
44988;BME280;35735;52.226;21.254;2023-05-23T02:33:26;100239.00;;;9.31;100.00
44988;BME280;35735;52.226;21.254;2023-05-23T02:38:27;100244.34;;;9.20;100.00
44988;BME280;35735;52.226;21.254;2023-05-23T02:43:27;100243.41;;;9.15;100.00
44988;BME280;35735;52.226;21.254;2023-05-23T02:48:28;100241.59;;;9.14;100.00
44988;BME280;35735;52.226;21.254;2023-05-23T02:53:28;100226.34;;;9.05;100.00
44988;BME280;35735;52.226;21.254;2023-05-23T02:58:29;100223.63;;;8.97;100.00
44988;BME280;35735;52.226;21.254;2023-05-23T03:03:30;100230.78;;;8.98;100.00
44988;BME280;35735;52.226;21.254;2023-05-23T03:08:30;100232.63;;;8.99;100.00
44988;BME280;35735;52.226;21.254;2023-05-23T03:13:31;100227.22;;;8.99;100.00
44988;BME280;35735;52.226;21.254;2023-05-23T03:18:32;100229.94;;;9.01;100.00
44988;BME280;35735;52.226;21.254;2023-05-23T03:23:32;100216.50;;;9.15;100.00
44988;BME280;35735;52.226;21.254;2023-05-23T03:28:33;100228.19;;;9.27;100.00
44988;BME280;35735;52.226;21.254;2023-05-23T03:33:33;100229.12;;;9.39;100.00
44988;BME280;35735;52.226;21.254;2023-05-23T03:38:34;100230.94;;;9.63;100.00
44988;BME280;35735;52.226;21.254;2023-05-23T03:43:34;100225.56;;;9.85;100.00
44988;BME280;35735;52.226;21.254;2023-05-23T03:48:35;100232.72;;;10.10;100.00
44988;BME280;35735;52.226;21.254;2023-05-23T03:53:36;100234.53;;;10.36;100.00
44988;BME280;35735;52.226;21.254;2023-05-23T03:58:36;100230.84;;;10.71;100.00
44988;BME280;35735;52.226;21.254;2023-05-23T04:03:37;100222.50;;;11.17;100.00
44988;BME280;35735;52.226;21.254;2023-05-23T04:08:37;100220.37;;;11.64;100.00
44988;BME280;35735;52.226;21.254;2023-05-23T04:13:38;100215.50;;;12.11;100.00
44988;BME280;35735;52.226;21.254;2023-05-23T04:18:38;100209.72;;;12.48;100.00
44988;BME280;35735;52.226;21.254;2023-05-23T04:23:39;100206.50;;;12.91;100.00
44988;BME280;35735;52.226;21.254;2023-05-23T04:28:39;100204.16;;;13.30;100.00
44988;BME280;35735;52.226;21.254;2023-05-23T04:33:40;100206.13;;;13.79;100.00
44988;BME280;35735;52.226;21.254;2023-05-23T04:38:40;100212.31;;;14.39;100.00
44988;BME280;35735;52.226;21.254;2023-05-23T04:43:41;100201.25;;;14.95;100.00
44988;BME280;35735;52.226;21.254;2023-05-23T04:48:42;100197.16;;;15.55;100.00
44988;BME280;35735;52.226;21.254;2023-05-23T04:53:42;100199.47;;;16.09;100.00
44988;BME280;35735;52.226;21.254;2023-05-23T04:58:43;100200.72;;;16.63;100.00
44988;BME280;35735;52.226;21.254;2023-05-23T05:03:43;100200.28;;;17.10;99.12
44988;BME280;35735;52.226;21.254;2023-05-23T05:08:44;100197.97;;;17.56;98.24
44988;BME280;35735;52.226;21.254;2023-05-23T05:13:44;100197.22;;;18.06;95.99
44988;BME280;35735;52.226;21.254;2023-05-23T05:18:45;100200.22;;;18.50;94.51
44988;BME280;35735;52.226;21.254;2023-05-23T05:23:45;100190.34;;;18.96;93.15
44988;BME280;35735;52.226;21.254;2023-05-23T05:28:46;100197.59;;;19.44;91.24
44988;BME280;35735;52.226;21.254;2023-05-23T05:33:46;100186.78;;;19.86;88.91
44988;BME280;35735;52.226;21.254;2023-05-23T05:38:47;100184.38;;;20.21;87.47
44988;BME280;35735;52.226;21.254;2023-05-23T05:43:48;100188.38;;;20.54;85.59
44988;BME280;35735;52.226;21.254;2023-05-23T05:48:48;100195.63;;;20.97;84.27
44988;BME280;35735;52.226;21.254;2023-05-23T05:53:49;100190.16;;;21.35;82.52
44988;BME280;35735;52.226;21.254;2023-05-23T05:58:49;100197.81;;;21.66;81.46
44988;BME280;35735;52.226;21.254;2023-05-23T06:03:50;100195.22;;;21.99;79.75
44988;BME280;35735;52.226;21.254;2023-05-23T06:08:50;100197.69;;;22.23;79.14
44988;BME280;35735;52.226;21.254;2023-05-23T06:13:51;100186.16;;;22.51;77.92
44988;BME280;35735;52.226;21.254;2023-05-23T06:18:51;100182.87;;;22.78;76.85
44988;BME280;35735;52.226;21.254;2023-05-23T06:23:52;100173.19;;;23.04;75.52
44988;BME280;35735;52.226;21.254;2023-05-23T06:28:52;100169.19;;;23.27;74.23
44988;BME280;35735;52.226;21.254;2023-05-23T06:33:53;100169.53;;;23.53;73.12
44988;BME280;35735;52.226;21.254;2023-05-23T06:38:54;100171.25;;;23.88;71.44
44988;BME280;35735;52.226;21.254;2023-05-23T06:43:54;100171.12;;;24.05;69.89
44988;BME280;35735;52.226;21.254;2023-05-23T06:48:55;100167.00;;;24.12;68.63
44988;BME280;35735;52.226;21.254;2023-05-23T06:53:55;100167.28;;;24.38;67.62
44988;BME280;35735;52.226;21.254;2023-05-23T06:58:56;100152.63;;;24.52;64.75
44988;BME280;35735;52.226;21.254;2023-05-23T07:03:57;100149.25;;;24.77;66.00
44988;BME280;35735;52.226;21.254;2023-05-23T07:08:57;100145.31;;;24.95;64.32
44988;BME280;35735;52.226;21.254;2023-05-23T07:13:58;100142.16;;;25.16;63.92
44988;BME280;35735;52.226;21.254;2023-05-23T07:19:00;100133.41;;;25.09;62.36
44988;BME280;35735;52.226;21.254;2023-05-23T07:24:01;100126.09;;;25.08;60.63
44988;BME280;35735;52.226;21.254;2023-05-23T07:29:01;100129.53;;;25.12;60.91
44988;BME280;35735;52.226;21.254;2023-05-23T07:34:02;100129.75;;;25.38;60.23
44988;BME280;35735;52.226;21.254;2023-05-23T07:39:03;100122.81;;;25.45;60.42
44988;BME280;35735;52.226;21.254;2023-05-23T07:44:03;100125.06;;;25.80;58.83
44988;BME280;35735;52.226;21.254;2023-05-23T07:49:04;100126.44;;;25.73;54.24
44988;BME280;35735;52.226;21.254;2023-05-23T07:54:04;100130.12;;;25.31;56.28
44988;BME280;35735;52.226;21.254;2023-05-23T07:59:05;100126.16;;;25.50;55.58
44988;BME280;35735;52.226;21.254;2023-05-23T08:04:05;100125.37;;;25.48;56.02
44988;BME280;35735;52.226;21.254;2023-05-23T08:09:07;100113.94;;;25.40;53.08
44988;BME280;35735;52.226;21.254;2023-05-23T08:14:07;100103.06;;;25.22;54.09
44988;BME280;35735;52.226;21.254;2023-05-23T08:19:08;100107.16;;;25.02;52.74
44988;BME280;35735;52.226;21.254;2023-05-23T08:24:09;100097.66;;;25.21;52.66
44988;BME280;35735;52.226;21.254;2023-05-23T08:29:09;100102.59;;;25.44;52.54
44988;BME280;35735;52.226;21.254;2023-05-23T08:34:10;100095.78;;;25.36;49.90
44988;BME280;35735;52.226;21.254;2023-05-23T08:39:10;100088.41;;;25.36;51.08
44988;BME280;35735;52.226;21.254;2023-05-23T08:44:12;100095.13;;;25.59;48.10
44988;BME280;35735;52.226;21.254;2023-05-23T08:49:16;100093.03;;;25.36;47.62
44988;BME280;35735;52.226;21.254;2023-05-23T08:54:17;100091.66;;;25.28;47.58
44988;BME280;35735;52.226;21.254;2023-05-23T08:59:18;100083.56;;;25.40;48.47
44988;BME280;35735;52.226;21.254;2023-05-23T09:04:19;100083.44;;;25.68;48.42
44988;BME280;35735;52.226;21.254;2023-05-23T09:09:20;100079.47;;;25.73;47.27
44988;BME280;35735;52.226;21.254;2023-05-23T09:14:20;100074.84;;;25.73;49.23
44988;BME280;35735;52.226;21.254;2023-05-23T09:19:21;100064.03;;;26.23;47.98
44988;BME280;35735;52.226;21.254;2023-05-23T09:24:21;100069.25;;;26.66;46.98
44988;BME280;35735;52.226;21.254;2023-05-23T09:29:22;100060.50;;;26.85;45.31
44988;BME280;35735;52.226;21.254;2023-05-23T09:34:23;100053.38;;;27.07;46.41
44988;BME280;35735;52.226;21.254;2023-05-23T09:39:23;100072.59;;;27.34;45.95
44988;BME280;35735;52.226;21.254;2023-05-23T09:44:24;100071.41;;;27.12;43.63
44988;BME280;35735;52.226;21.254;2023-05-23T09:49:25;100058.13;;;27.05;43.21
44988;BME280;35735;52.226;21.254;2023-05-23T09:54:25;100063.22;;;26.98;42.27
44988;BME280;35735;52.226;21.254;2023-05-23T09:59:30;100067.28;;;26.68;40.61
44988;BME280;35735;52.226;21.254;2023-05-23T10:04:33;100061.06;;;26.52;41.08
44988;BME280;35735;52.226;21.254;2023-05-23T10:09:36;100043.00;;;26.59;42.62
44988;BME280;35735;52.226;21.254;2023-05-23T10:14:43;100051.53;;;26.82;43.10
44988;BME280;35735;52.226;21.254;2023-05-23T10:24:52;100047.13;;;26.66;41.98
44988;BME280;35735;52.226;21.254;2023-05-23T10:29:53;100038.91;;;26.65;41.02
44988;BME280;35735;52.226;21.254;2023-05-23T10:35:12;100052.50;;;26.29;39.86
44988;BME280;35735;52.226;21.254;2023-05-23T10:40:40;100047.94;;;26.02;41.47
44988;BME280;35735;52.226;21.254;2023-05-23T10:45:46;100042.69;;;25.85;40.90
44988;BME280;35735;52.226;21.254;2023-05-23T10:51:00;100055.09;;;25.52;41.59
44988;BME280;35735;52.226;21.254;2023-05-23T10:56:05;100037.00;;;25.19;41.96
44988;BME280;35735;52.226;21.254;2023-05-23T11:01:08;100038.22;;;25.29;42.92
44988;BME280;35735;52.226;21.254;2023-05-23T11:06:27;100042.88;;;25.42;43.31
44988;BME280;35735;52.226;21.254;2023-05-23T11:16:50;100031.69;;;25.30;43.88
44988;BME280;35735;52.226;21.254;2023-05-23T11:21:53;100026.28;;;25.56;44.29
44988;BME280;35735;52.226;21.254;2023-05-23T11:27:00;100019.81;;;25.83;44.67
44988;BME280;35735;52.226;21.254;2023-05-23T11:32:09;100006.37;;;26.17;45.02
44988;BME280;35735;52.226;21.254;2023-05-23T11:37:10;100005.50;;;26.42;43.22
44988;BME280;35735;52.226;21.254;2023-05-23T11:42:10;99992.66;;;26.02;42.65
44988;BME280;35735;52.226;21.254;2023-05-23T11:47:11;99988.41;;;25.71;43.51
44988;BME280;35735;52.226;21.254;2023-05-23T11:52:12;99998.34;;;25.74;43.75
44988;BME280;35735;52.226;21.254;2023-05-23T11:57:12;100001.28;;;25.30;44.60
44988;BME280;35735;52.226;21.254;2023-05-23T12:02:13;99990.53;;;24.99;44.57
44988;BME280;35735;52.226;21.254;2023-05-23T12:07:18;99990.53;;;24.99;46.01
44988;BME280;35735;52.226;21.254;2023-05-23T12:12:19;99992.47;;;25.11;46.24
44988;BME280;35735;52.226;21.254;2023-05-23T12:17:19;99988.88;;;25.23;46.76
44988;BME280;35735;52.226;21.254;2023-05-23T12:22:23;99976.81;;;25.39;44.86
44988;BME280;35735;52.226;21.254;2023-05-23T12:27:33;99971.78;;;25.58;45.87
44988;BME280;35735;52.226;21.254;2023-05-23T12:32:38;99980.22;;;25.82;44.57
44988;BME280;35735;52.226;21.254;2023-05-23T12:37:43;99981.53;;;25.77;44.17
44988;BME280;35735;52.226;21.254;2023-05-23T12:47:57;99965.47;;;25.69;45.77
44988;BME280;35735;52.226;21.254;2023-05-23T12:52:58;99959.78;;;25.85;44.89
44988;BME280;35735;52.226;21.254;2023-05-23T12:57:58;99960.31;;;25.64;44.70
44988;BME280;35735;52.226;21.254;2023-05-23T13:02:59;99952.72;;;25.41;44.85
44988;BME280;35735;52.226;21.254;2023-05-23T13:07:59;99944.16;;;25.04;45.47
44988;BME280;35735;52.226;21.254;2023-05-23T13:13:00;99956.03;;;24.91;46.26
44988;BME280;35735;52.226;21.254;2023-05-23T13:18:00;99949.28;;;24.83;47.74
44988;BME280;35735;52.226;21.254;2023-05-23T13:23:01;99942.72;;;24.71;47.17
44988;BME280;35735;52.226;21.254;2023-05-23T13:28:02;99937.78;;;24.62;47.71
44988;BME280;35735;52.226;21.254;2023-05-23T13:33:02;99932.25;;;24.62;48.17
44988;BME280;35735;52.226;21.254;2023-05-23T13:38:03;99927.81;;;24.59;47.57
44988;BME280;35735;52.226;21.254;2023-05-23T13:43:03;99933.25;;;24.46;48.19
44988;BME280;35735;52.226;21.254;2023-05-23T13:48:04;99927.53;;;24.49;47.93
44988;BME280;35735;52.226;21.254;2023-05-23T13:53:04;99919.16;;;24.51;48.07
44988;BME280;35735;52.226;21.254;2023-05-23T13:58:05;99922.69;;;24.53;48.78
44988;BME280;35735;52.226;21.254;2023-05-23T14:03:06;99923.56;;;24.53;48.54
44988;BME280;35735;52.226;21.254;2023-05-23T14:08:06;99914.91;;;24.45;48.42
44988;BME280;35735;52.226;21.254;2023-05-23T14:13:07;99910.69;;;24.39;48.69
44988;BME280;35735;52.226;21.254;2023-05-23T14:18:07;99915.41;;;24.52;49.50
44988;BME280;35735;52.226;21.254;2023-05-23T14:23:08;99910.09;;;24.63;48.98
44988;BME280;35735;52.226;21.254;2023-05-23T14:28:08;99906.84;;;24.71;48.63
44988;BME280;35735;52.226;21.254;2023-05-23T14:33:09;99905.81;;;24.72;47.43
44988;BME280;35735;52.226;21.254;2023-05-23T14:38:10;99904.19;;;24.69;47.57
44988;BME280;35735;52.226;21.254;2023-05-23T14:43:10;99901.63;;;24.66;47.44
44988;BME280;35735;52.226;21.254;2023-05-23T14:48:11;99896.97;;;24.67;47.67
44988;BME280;35735;52.226;21.254;2023-05-23T14:53:11;99887.13;;;24.48;47.09
44988;BME280;35735;52.226;21.254;2023-05-23T14:58:12;99893.53;;;24.49;46.55
44988;BME280;35735;52.226;21.254;2023-05-23T15:03:13;99886.56;;;24.43;46.31
44988;BME280;35735;52.226;21.254;2023-05-23T15:08:14;99891.28;;;24.41;45.26
44988;BME280;35735;52.226;21.254;2023-05-23T15:13:15;99899.19;;;24.33;45.18
44988;BME280;35735;52.226;21.254;2023-05-23T15:18:16;99881.72;;;24.32;45.70
44988;BME280;35735;52.226;21.254;2023-05-23T15:23:16;99876.34;;;24.31;45.92
44988;BME280;35735;52.226;21.254;2023-05-23T15:28:17;99872.00;;;24.27;45.67
44988;BME280;35735;52.226;21.254;2023-05-23T15:33:17;99873.13;;;24.24;46.05
44988;BME280;35735;52.226;21.254;2023-05-23T15:38:18;99868.38;;;24.12;46.17
44988;BME280;35735;52.226;21.254;2023-05-23T15:43:19;99876.16;;;24.05;46.10
44988;BME280;35735;52.226;21.254;2023-05-23T15:48:19;99872.03;;;23.98;46.58
44988;BME280;35735;52.226;21.254;2023-05-23T15:53:20;99868.19;;;24.00;47.02
44988;BME280;35735;52.226;21.254;2023-05-23T15:58:21;99871.16;;;23.97;46.68
44988;BME280;35735;52.226;21.254;2023-05-23T16:03:21;99863.91;;;23.80;47.61
44988;BME280;35735;52.226;21.254;2023-05-23T16:08:22;99860.47;;;23.77;48.33
44988;BME280;35735;52.226;21.254;2023-05-23T16:13:22;99854.47;;;23.70;48.61
44988;BME280;35735;52.226;21.254;2023-05-23T16:18:23;99853.69;;;23.68;48.25
44988;BME280;35735;52.226;21.254;2023-05-23T16:23:23;99849.56;;;23.61;49.06
44988;BME280;35735;52.226;21.254;2023-05-23T16:28:26;99849.16;;;23.53;49.81
44988;BME280;35735;52.226;21.254;2023-05-23T16:33:26;99845.62;;;23.51;49.71
44988;BME280;35735;52.226;21.254;2023-05-23T16:38:27;99844.91;;;23.47;49.98
44988;BME280;35735;52.226;21.254;2023-05-23T16:43:27;99843.06;;;23.47;50.38
44988;BME280;35735;52.226;21.254;2023-05-23T16:48:28;99843.06;;;23.47;50.84
44988;BME280;35735;52.226;21.254;2023-05-23T16:53:28;99844.03;;;23.46;50.99
44988;BME280;35735;52.226;21.254;2023-05-23T16:58:29;99829.06;;;23.36;51.02
44988;BME280;35735;52.226;21.254;2023-05-23T17:03:29;99844.12;;;23.30;51.34
44988;BME280;35735;52.226;21.254;2023-05-23T17:08:30;99843.81;;;23.21;52.13
44988;BME280;35735;52.226;21.254;2023-05-23T17:13:30;99845.72;;;23.19;53.15
44988;BME280;35735;52.226;21.254;2023-05-23T17:18:31;99841.31;;;23.16;53.28
44988;BME280;35735;52.226;21.254;2023-05-23T17:23:31;99848.63;;;23.17;53.93
44988;BME280;35735;52.226;21.254;2023-05-23T17:28:32;99849.66;;;23.15;54.33
44988;BME280;35735;52.226;21.254;2023-05-23T17:33:33;99841.69;;;23.10;54.92
44988;BME280;35735;52.226;21.254;2023-05-23T17:38:33;99845.03;;;23.15;55.80
44988;BME280;35735;52.226;21.254;2023-05-23T17:43:34;99843.09;;;23.17;56.30
44988;BME280;35735;52.226;21.254;2023-05-23T17:48:34;99840.81;;;23.09;57.69
44988;BME280;35735;52.226;21.254;2023-05-23T17:53:35;99853.94;;;23.04;59.88
44988;BME280;35735;52.226;21.254;2023-05-23T17:58:36;99861.94;;;22.93;61.67
44988;BME280;35735;52.226;21.254;2023-05-23T18:03:37;99856.44;;;22.93;61.73
44988;BME280;35735;52.226;21.254;2023-05-23T18:08:37;99855.06;;;22.86;62.93
44988;BME280;35735;52.226;21.254;2023-05-23T18:13:39;99858.09;;;22.65;64.91
44988;BME280;35735;52.226;21.254;2023-05-23T18:18:40;99858.03;;;22.51;66.05
44988;BME280;35735;52.226;21.254;2023-05-23T18:23:40;99854.22;;;22.37;66.09
44988;BME280;35735;52.226;21.254;2023-05-23T18:28:41;99856.47;;;22.13;67.44
44988;BME280;35735;52.226;21.254;2023-05-23T18:33:41;99866.38;;;22.00;68.06
44988;BME280;35735;52.226;21.254;2023-05-23T18:38:42;99876.38;;;21.85;68.42
44988;BME280;35735;52.226;21.254;2023-05-23T18:43:42;99875.47;;;21.69;69.31
44988;BME280;35735;52.226;21.254;2023-05-23T18:48:43;99880.81;;;21.54;69.98
44988;BME280;35735;52.226;21.254;2023-05-23T18:53:44;99881.44;;;21.42;71.21
44988;BME280;35735;52.226;21.254;2023-05-23T18:58:44;99887.25;;;21.36;71.44
44988;BME280;35735;52.226;21.254;2023-05-23T19:03:45;99886.84;;;21.26;71.88
44988;BME280;35735;52.226;21.254;2023-05-23T19:08:46;99894.03;;;21.11;72.24
44988;BME280;35735;52.226;21.254;2023-05-23T19:13:46;99888.88;;;21.05;71.45
44988;BME280;35735;52.226;21.254;2023-05-23T19:18:47;99891.94;;;20.99;71.54
44988;BME280;35735;52.226;21.254;2023-05-23T19:23:47;99891.44;;;20.90;71.56
44988;BME280;35735;52.226;21.254;2023-05-23T19:28:48;99906.09;;;20.89;71.58
44988;BME280;35735;52.226;21.254;2023-05-23T19:33:48;99900.63;;;20.89;71.55
44988;BME280;35735;52.226;21.254;2023-05-23T19:38:49;99911.00;;;20.83;71.30
44988;BME280;35735;52.226;21.254;2023-05-23T19:43:49;99916.41;;;20.67;71.28
44988;BME280;35735;52.226;21.254;2023-05-23T19:48:50;99918.44;;;20.62;71.83
44988;BME280;35735;52.226;21.254;2023-05-23T19:53:51;99912.44;;;20.53;73.30
44988;BME280;35735;52.226;21.254;2023-05-23T19:58:51;99917.78;;;20.37;73.42
44988;BME280;35735;52.226;21.254;2023-05-23T20:03:52;99913.94;;;20.23;73.63
44988;BME280;35735;52.226;21.254;2023-05-23T20:08:52;99916.38;;;20.10;73.75
44988;BME280;35735;52.226;21.254;2023-05-23T20:13:53;99911.47;;;19.97;75.00
44988;BME280;35735;52.226;21.254;2023-05-23T20:18:54;99921.22;;;19.84;74.87
44988;BME280;35735;52.226;21.254;2023-05-23T20:23:54;99916.50;;;19.67;76.44
44988;BME280;35735;52.226;21.254;2023-05-23T20:28:55;99913.78;;;19.47;78.01
44988;BME280;35735;52.226;21.254;2023-05-23T20:33:55;99926.34;;;19.30;78.84
44988;BME280;35735;52.226;21.254;2023-05-23T20:38:56;99918.91;;;19.13;80.62
44988;BME280;35735;52.226;21.254;2023-05-23T20:43:56;99929.47;;;19.00;81.23
44988;BME280;35735;52.226;21.254;2023-05-23T20:48:57;99936.41;;;18.87;81.86
44988;BME280;35735;52.226;21.254;2023-05-23T20:53:58;99939.63;;;18.75;83.10
44988;BME280;35735;52.226;21.254;2023-05-23T20:58:58;99935.97;;;18.74;83.00
44988;BME280;35735;52.226;21.254;2023-05-23T21:03:59;99930.56;;;18.73;82.79
44988;BME280;35735;52.226;21.254;2023-05-23T21:08:59;99928.06;;;18.68;83.28
44988;BME280;35735;52.226;21.254;2023-05-23T21:14:00;99931.09;;;18.60;83.50
44988;BME280;35735;52.226;21.254;2023-05-23T21:19:00;99918.06;;;18.45;84.19
44988;BME280;35735;52.226;21.254;2023-05-23T21:24:01;99921.53;;;18.26;84.88
44988;BME280;35735;52.226;21.254;2023-05-23T21:29:01;99929.03;;;18.21;84.22
44988;BME280;35735;52.226;21.254;2023-05-23T21:34:02;99929.44;;;18.10;84.63
44988;BME280;35735;52.226;21.254;2023-05-23T21:39:02;99922.31;;;18.06;84.37
44988;BME280;35735;52.226;21.254;2023-05-23T21:44:03;99924.28;;;18.03;84.31
44988;BME280;35735;52.226;21.254;2023-05-23T21:49:04;99923.81;;;17.91;85.08
44988;BME280;35735;52.226;21.254;2023-05-23T21:54:04;99931.34;;;17.83;85.75
44988;BME280;35735;52.226;21.254;2023-05-23T21:59:05;99928.84;;;17.77;86.71
44988;BME280;35735;52.226;21.254;2023-05-23T22:04:05;99935.59;;;17.67;87.32
44988;BME280;35735;52.226;21.254;2023-05-23T22:09:06;99928.59;;;17.59;87.32
44988;BME280;35735;52.226;21.254;2023-05-23T22:14:06;99933.91;;;17.64;87.23
44988;BME280;35735;52.226;21.254;2023-05-23T22:19:07;99937.66;;;17.60;87.35
44988;BME280;35735;52.226;21.254;2023-05-23T22:24:08;99921.56;;;17.52;86.54
44988;BME280;35735;52.226;21.254;2023-05-23T22:29:08;99913.84;;;17.40;86.32
44988;BME280;35735;52.226;21.254;2023-05-23T22:34:09;99922.13;;;17.37;86.05
44988;BME280;35735;52.226;21.254;2023-05-23T22:39:09;99924.06;;;17.33;85.90
44988;BME280;35735;52.226;21.254;2023-05-23T22:44:10;99919.50;;;17.34;85.76
44988;BME280;35735;52.226;21.254;2023-05-23T22:49:10;99919.41;;;17.37;86.73
44988;BME280;35735;52.226;21.254;2023-05-23T22:54:11;99930.31;;;17.37;87.19
44988;BME280;35735;52.226;21.254;2023-05-23T22:59:11;99930.41;;;17.34;88.20
44988;BME280;35735;52.226;21.254;2023-05-23T23:04:12;99933.50;;;17.25;87.58
44988;BME280;35735;52.226;21.254;2023-05-23T23:09:12;99930.41;;;17.34;87.46
44988;BME280;35735;52.226;21.254;2023-05-23T23:14:13;99934.78;;;17.39;87.73
44988;BME280;35735;52.226;21.254;2023-05-23T23:19:14;99929.28;;;17.41;87.68
44988;BME280;35735;52.226;21.254;2023-05-23T23:24:15;99916.56;;;17.40;88.37
44988;BME280;35735;52.226;21.254;2023-05-23T23:29:15;99916.50;;;17.41;87.58
44988;BME280;35735;52.226;21.254;2023-05-23T23:34:16;99916.41;;;17.45;87.72
44988;BME280;35735;52.226;21.254;2023-05-23T23:39:16;99909.09;;;17.45;88.38
44988;BME280;35735;52.226;21.254;2023-05-23T23:44:17;99917.41;;;17.42;88.77
44988;BME280;35735;52.226;21.254;2023-05-23T23:49:18;99911.31;;;17.34;89.23
44988;BME280;35735;52.226;21.254;2023-05-23T23:54:18;99907.88;;;17.29;89.69
44988;BME280;35735;52.226;21.254;2023-05-23T23:59:19;99905.50;;;17.19;90.21
